sensor_id;sensor_type;location;lat;lon;timestamp;P1;durP1;ratioP1;P2;durP2;ratioP2
71048;SDS011;58704;53.358;-6.238;2023-05-10T00:00:20;9.33;;;1.60;;
71048;SDS011;58704;53.358;-6.238;2023-05-10T00:02:47;11.65;;;2.35;;
71048;SDS011;58704;53.358;-6.238;2023-05-10T00:05:13;11.35;;;2.30;;
71048;SDS011;58704;53.358;-6.238;2023-05-10T00:07:38;4.57;;;1.90;;
71048;SDS011;58704;53.358;-6.238;2023-05-10T00:10:04;6.23;;;2.30;;
71048;SDS011;58704;53.358;-6.238;2023-05-10T00:12:29;4.78;;;1.92;;
71048;SDS011;58704;53.358;-6.238;2023-05-10T00:14:55;6.00;;;2.00;;
71048;SDS011;58704;53.358;-6.238;2023-05-10T00:17:20;8.03;;;1.80;;
71048;SDS011;58704;53.358;-6.238;2023-05-10T00:19:45;5.63;;;1.83;;
71048;SDS011;58704;53.358;-6.238;2023-05-10T00:22:11;5.15;;;1.83;;
71048;SDS011;58704;53.358;-6.238;2023-05-10T00:24:37;9.63;;;2.27;;
71048;SDS011;58704;53.358;-6.238;2023-05-10T00:27:03;12.25;;;1.92;;
71048;SDS011;58704;53.358;-6.238;2023-05-10T00:29:29;6.70;;;1.63;;
71048;SDS011;58704;53.358;-6.238;2023-05-10T00:31:54;7.43;;;2.38;;
71048;SDS011;58704;53.358;-6.238;2023-05-10T00:34:20;8.60;;;1.90;;
71048;SDS011;58704;53.358;-6.238;2023-05-10T00:36:45;4.00;;;1.58;;
71048;SDS011;58704;53.358;-6.238;2023-05-10T00:39:11;3.87;;;1.50;;
71048;SDS011;58704;53.358;-6.238;2023-05-10T00:41:37;6.88;;;2.45;;
71048;SDS011;58704;53.358;-6.238;2023-05-10T00:44:02;8.27;;;2.40;;
71048;SDS011;58704;53.358;-6.238;2023-05-10T00:46:30;8.38;;;2.53;;
71048;SDS011;58704;53.358;-6.238;2023-05-10T00:48:55;13.97;;;2.20;;
71048;SDS011;58704;53.358;-6.238;2023-05-10T00:51:21;7.30;;;1.75;;
71048;SDS011;58704;53.358;-6.238;2023-05-10T00:53:47;9.20;;;1.67;;
71048;SDS011;58704;53.358;-6.238;2023-05-10T00:56:13;9.13;;;2.08;;
71048;SDS011;58704;53.358;-6.238;2023-05-10T00:58:39;7.47;;;2.20;;
71048;SDS011;58704;53.358;-6.238;2023-05-10T01:01:05;6.30;;;1.83;;
71048;SDS011;58704;53.358;-6.238;2023-05-10T01:03:32;8.73;;;1.63;;
71048;SDS011;58704;53.358;-6.238;2023-05-10T01:05:57;8.13;;;2.17;;
71048;SDS011;58704;53.358;-6.238;2023-05-10T01:08:23;9.40;;;1.97;;
71048;SDS011;58704;53.358;-6.238;2023-05-10T01:10:49;5.05;;;1.67;;
71048;SDS011;58704;53.358;-6.238;2023-05-10T01:13:17;10.07;;;2.42;;
71048;SDS011;58704;53.358;-6.238;2023-05-10T01:15:45;6.17;;;1.87;;
71048;SDS011;58704;53.358;-6.238;2023-05-10T01:18:11;8.95;;;2.10;;
71048;SDS011;58704;53.358;-6.238;2023-05-10T01:20:39;9.63;;;2.07;;
71048;SDS011;58704;53.358;-6.238;2023-05-10T01:23:30;6.93;;;1.83;;
71048;SDS011;58704;53.358;-6.238;2023-05-10T01:28:40;9.60;;;2.00;;
71048;SDS011;58704;53.358;-6.238;2023-05-10T01:31:22;10.57;;;2.22;;
71048;SDS011;58704;53.358;-6.238;2023-05-10T01:46:50;5.80;;;1.50;;
71048;SDS011;58704;53.358;-6.238;2023-05-10T01:49:24;5.40;;;2.17;;
71048;SDS011;58704;53.358;-6.238;2023-05-10T01:51:52;9.23;;;2.47;;
71048;SDS011;58704;53.358;-6.238;2023-05-10T01:54:20;11.57;;;1.90;;
71048;SDS011;58704;53.358;-6.238;2023-05-10T01:56:57;3.95;;;1.25;;
71048;SDS011;58704;53.358;-6.238;2023-05-10T01:59:27;4.20;;;1.65;;
71048;SDS011;58704;53.358;-6.238;2023-05-10T02:01:53;6.87;;;1.67;;
71048;SDS011;58704;53.358;-6.238;2023-05-10T02:04:19;3.85;;;1.65;;
71048;SDS011;58704;53.358;-6.238;2023-05-10T02:06:47;7.68;;;1.65;;
71048;SDS011;58704;53.358;-6.238;2023-05-10T02:09:13;6.10;;;1.60;;
71048;SDS011;58704;53.358;-6.238;2023-05-10T02:11:39;6.97;;;1.80;;
71048;SDS011;58704;53.358;-6.238;2023-05-10T02:14:07;6.13;;;1.42;;
71048;SDS011;58704;53.358;-6.238;2023-05-10T02:16:34;5.57;;;1.60;;
71048;SDS011;58704;53.358;-6.238;2023-05-10T02:19:00;5.03;;;1.63;;
71048;SDS011;58704;53.358;-6.238;2023-05-10T02:21:26;9.75;;;2.00;;
71048;SDS011;58704;53.358;-6.238;2023-05-10T02:23:53;8.75;;;1.65;;
71048;SDS011;58704;53.358;-6.238;2023-05-10T02:26:19;7.65;;;1.73;;
71048;SDS011;58704;53.358;-6.238;2023-05-10T02:28:46;8.32;;;1.73;;
71048;SDS011;58704;53.358;-6.238;2023-05-10T02:31:11;8.17;;;2.30;;
71048;SDS011;58704;53.358;-6.238;2023-05-10T02:33:40;4.13;;;1.80;;
71048;SDS011;58704;53.358;-6.238;2023-05-10T02:36:07;6.45;;;1.45;;
71048;SDS011;58704;53.358;-6.238;2023-05-10T02:38:33;11.88;;;2.30;;
71048;SDS011;58704;53.358;-6.238;2023-05-10T02:40:59;7.00;;;2.30;;
71048;SDS011;58704;53.358;-6.238;2023-05-10T02:43:25;7.93;;;1.70;;
71048;SDS011;58704;53.358;-6.238;2023-05-10T02:45:50;7.20;;;1.67;;
71048;SDS011;58704;53.358;-6.238;2023-05-10T02:48:16;7.05;;;1.70;;
71048;SDS011;58704;53.358;-6.238;2023-05-10T02:50:43;5.77;;;2.10;;
71048;SDS011;58704;53.358;-6.238;2023-05-10T02:53:10;4.95;;;1.92;;
71048;SDS011;58704;53.358;-6.238;2023-05-10T02:55:39;8.60;;;1.70;;
71048;SDS011;58704;53.358;-6.238;2023-05-10T02:58:06;8.97;;;2.23;;
71048;SDS011;58704;53.358;-6.238;2023-05-10T03:00:32;8.32;;;1.52;;
71048;SDS011;58704;53.358;-6.238;2023-05-10T03:02:57;6.17;;;2.00;;
71048;SDS011;58704;53.358;-6.238;2023-05-10T03:05:23;6.80;;;1.80;;
71048;SDS011;58704;53.358;-6.238;2023-05-10T03:07:48;6.73;;;1.77;;
71048;SDS011;58704;53.358;-6.238;2023-05-10T03:10:15;7.90;;;1.70;;
71048;SDS011;58704;53.358;-6.238;2023-05-10T03:15:25;8.65;;;2.05;;
71048;SDS011;58704;53.358;-6.238;2023-05-10T03:20:33;6.80;;;1.77;;
71048;SDS011;58704;53.358;-6.238;2023-05-10T03:23:05;5.50;;;1.38;;
71048;SDS011;58704;53.358;-6.238;2023-05-10T03:25:35;11.80;;;1.98;;
71048;SDS011;58704;53.358;-6.238;2023-05-10T03:28:01;6.87;;;1.43;;
71048;SDS011;58704;53.358;-6.238;2023-05-10T03:30:28;8.23;;;1.90;;
71048;SDS011;58704;53.358;-6.238;2023-05-10T03:32:53;5.83;;;1.70;;
71048;SDS011;58704;53.358;-6.238;2023-05-10T03:35:19;11.18;;;1.80;;
71048;SDS011;58704;53.358;-6.238;2023-05-10T03:37:44;8.50;;;2.40;;
71048;SDS011;58704;53.358;-6.238;2023-05-10T03:40:10;8.27;;;1.60;;
71048;SDS011;58704;53.358;-6.238;2023-05-10T03:42:35;6.47;;;2.05;;
71048;SDS011;58704;53.358;-6.238;2023-05-10T03:45:01;6.27;;;1.60;;
71048;SDS011;58704;53.358;-6.238;2023-05-10T03:47:27;5.90;;;1.77;;
71048;SDS011;58704;53.358;-6.238;2023-05-10T03:49:52;7.07;;;1.60;;
71048;SDS011;58704;53.358;-6.238;2023-05-10T03:52:17;5.63;;;1.70;;
71048;SDS011;58704;53.358;-6.238;2023-05-10T03:54:43;6.23;;;1.77;;
71048;SDS011;58704;53.358;-6.238;2023-05-10T03:57:08;6.70;;;1.47;;
71048;SDS011;58704;53.358;-6.238;2023-05-10T03:59:34;8.33;;;1.63;;
71048;SDS011;58704;53.358;-6.238;2023-05-10T04:02:00;11.70;;;1.80;;
71048;SDS011;58704;53.358;-6.238;2023-05-10T04:04:25;6.73;;;1.90;;
71048;SDS011;58704;53.358;-6.238;2023-05-10T04:06:50;5.53;;;1.60;;
71048;SDS011;58704;53.358;-6.238;2023-05-10T04:09:16;9.53;;;2.00;;
71048;SDS011;58704;53.358;-6.238;2023-05-10T04:11:42;10.83;;;1.93;;
71048;SDS011;58704;53.358;-6.238;2023-05-10T04:14:07;13.23;;;2.13;;
71048;SDS011;58704;53.358;-6.238;2023-05-10T04:16:36;8.10;;;1.40;;
71048;SDS011;58704;53.358;-6.238;2023-05-10T04:19:01;10.48;;;2.08;;
71048;SDS011;58704;53.358;-6.238;2023-05-10T04:21:26;7.13;;;1.73;;
71048;SDS011;58704;53.358;-6.238;2023-05-10T04:23:52;9.93;;;1.63;;
71048;SDS011;58704;53.358;-6.238;2023-05-10T04:26:17;6.90;;;1.50;;
71048;SDS011;58704;53.358;-6.238;2023-05-10T04:28:43;5.30;;;1.20;;
71048;SDS011;58704;53.358;-6.238;2023-05-10T04:31:09;5.83;;;1.40;;
71048;SDS011;58704;53.358;-6.238;2023-05-10T04:33:35;5.45;;;1.40;;
71048;SDS011;58704;53.358;-6.238;2023-05-10T04:36:01;6.22;;;1.95;;
71048;SDS011;58704;53.358;-6.238;2023-05-10T04:38:27;7.93;;;1.20;;
71048;SDS011;58704;53.358;-6.238;2023-05-10T04:40:53;7.60;;;1.67;;
71048;SDS011;58704;53.358;-6.238;2023-05-10T04:43:18;12.60;;;2.23;;
71048;SDS011;58704;53.358;-6.238;2023-05-10T04:45:44;8.40;;;2.00;;
71048;SDS011;58704;53.358;-6.238;2023-05-10T04:48:09;8.10;;;1.73;;
71048;SDS011;58704;53.358;-6.238;2023-05-10T04:50:34;5.97;;;1.53;;
71048;SDS011;58704;53.358;-6.238;2023-05-10T04:53:00;8.67;;;2.30;;
71048;SDS011;58704;53.358;-6.238;2023-05-10T04:55:25;9.57;;;1.40;;
71048;SDS011;58704;53.358;-6.238;2023-05-10T04:57:51;6.63;;;1.77;;
71048;SDS011;58704;53.358;-6.238;2023-05-10T05:00:17;5.93;;;1.77;;
71048;SDS011;58704;53.358;-6.238;2023-05-10T05:02:43;7.45;;;1.80;;
71048;SDS011;58704;53.358;-6.238;2023-05-10T05:05:12;6.43;;;1.60;;
71048;SDS011;58704;53.358;-6.238;2023-05-10T05:07:38;9.40;;;2.40;;
71048;SDS011;58704;53.358;-6.238;2023-05-10T05:10:04;9.13;;;2.42;;
71048;SDS011;58704;53.358;-6.238;2023-05-10T05:12:31;9.30;;;1.47;;
71048;SDS011;58704;53.358;-6.238;2023-05-10T05:14:56;9.43;;;1.70;;
71048;SDS011;58704;53.358;-6.238;2023-05-10T05:17:22;5.17;;;1.90;;
71048;SDS011;58704;53.358;-6.238;2023-05-10T05:19:47;8.23;;;2.30;;
71048;SDS011;58704;53.358;-6.238;2023-05-10T05:22:12;8.83;;;1.57;;
71048;SDS011;58704;53.358;-6.238;2023-05-10T05:24:38;5.10;;;1.35;;
71048;SDS011;58704;53.358;-6.238;2023-05-10T05:27:03;8.03;;;1.70;;
71048;SDS011;58704;53.358;-6.238;2023-05-10T05:29:29;6.33;;;1.80;;
71048;SDS011;58704;53.358;-6.238;2023-05-10T05:31:54;11.25;;;1.67;;
71048;SDS011;58704;53.358;-6.238;2023-05-10T05:34:20;5.97;;;1.60;;
71048;SDS011;58704;53.358;-6.238;2023-05-10T05:36:46;7.25;;;1.50;;
71048;SDS011;58704;53.358;-6.238;2023-05-10T05:39:12;10.37;;;1.80;;
71048;SDS011;58704;53.358;-6.238;2023-05-10T05:41:37;5.97;;;1.77;;
71048;SDS011;58704;53.358;-6.238;2023-05-10T05:44:02;9.55;;;1.73;;
71048;SDS011;58704;53.358;-6.238;2023-05-10T05:46:28;5.37;;;1.63;;
71048;SDS011;58704;53.358;-6.238;2023-05-10T05:48:53;7.00;;;2.33;;
71048;SDS011;58704;53.358;-6.238;2023-05-10T05:51:19;9.23;;;2.20;;
71048;SDS011;58704;53.358;-6.238;2023-05-10T05:53:45;8.77;;;1.63;;
71048;SDS011;58704;53.358;-6.238;2023-05-10T05:56:10;7.47;;;1.67;;
71048;SDS011;58704;53.358;-6.238;2023-05-10T05:58:35;9.10;;;1.58;;
71048;SDS011;58704;53.358;-6.238;2023-05-10T06:01:01;5.40;;;1.70;;
71048;SDS011;58704;53.358;-6.238;2023-05-10T06:03:26;6.70;;;1.83;;
71048;SDS011;58704;53.358;-6.238;2023-05-10T06:05:52;7.50;;;1.47;;
71048;SDS011;58704;53.358;-6.238;2023-05-10T06:08:17;5.57;;;1.60;;
71048;SDS011;58704;53.358;-6.238;2023-05-10T06:10:42;5.78;;;1.42;;
71048;SDS011;58704;53.358;-6.238;2023-05-10T06:13:08;2.33;;;1.20;;
71048;SDS011;58704;53.358;-6.238;2023-05-10T06:15:33;5.07;;;1.30;;
71048;SDS011;58704;53.358;-6.238;2023-05-10T06:17:59;3.33;;;1.60;;
71048;SDS011;58704;53.358;-6.238;2023-05-10T06:20:25;4.70;;;1.37;;
71048;SDS011;58704;53.358;-6.238;2023-05-10T06:22:50;3.78;;;1.70;;
71048;SDS011;58704;53.358;-6.238;2023-05-10T06:25:16;4.33;;;1.37;;
71048;SDS011;58704;53.358;-6.238;2023-05-10T06:27:43;4.57;;;1.60;;
71048;SDS011;58704;53.358;-6.238;2023-05-10T06:30:08;3.50;;;1.50;;
71048;SDS011;58704;53.358;-6.238;2023-05-10T06:32:34;6.72;;;1.63;;
71048;SDS011;58704;53.358;-6.238;2023-05-10T06:35:00;3.57;;;1.33;;
71048;SDS011;58704;53.358;-6.238;2023-05-10T06:37:25;6.13;;;1.60;;
71048;SDS011;58704;53.358;-6.238;2023-05-10T06:39:50;4.03;;;1.38;;
71048;SDS011;58704;53.358;-6.238;2023-05-10T06:42:16;3.40;;;1.20;;
71048;SDS011;58704;53.358;-6.238;2023-05-10T06:44:41;4.27;;;1.50;;
71048;SDS011;58704;53.358;-6.238;2023-05-10T06:47:07;6.50;;;1.30;;
71048;SDS011;58704;53.358;-6.238;2023-05-10T06:49:35;8.93;;;1.67;;
71048;SDS011;58704;53.358;-6.238;2023-05-10T06:52:00;7.23;;;1.60;;
71048;SDS011;58704;53.358;-6.238;2023-05-10T06:54:26;2.80;;;1.10;;
71048;SDS011;58704;53.358;-6.238;2023-05-10T06:56:51;4.30;;;1.33;;
71048;SDS011;58704;53.358;-6.238;2023-05-10T06:59:17;2.97;;;1.77;;
71048;SDS011;58704;53.358;-6.238;2023-05-10T07:01:44;5.25;;;1.55;;
71048;SDS011;58704;53.358;-6.238;2023-05-10T07:04:09;6.30;;;1.30;;
71048;SDS011;58704;53.358;-6.238;2023-05-10T07:06:34;3.33;;;1.20;;
71048;SDS011;58704;53.358;-6.238;2023-05-10T07:09:01;5.40;;;1.52;;
71048;SDS011;58704;53.358;-6.238;2023-05-10T07:11:27;3.83;;;1.20;;
71048;SDS011;58704;53.358;-6.238;2023-05-10T07:13:53;8.87;;;1.67;;
71048;SDS011;58704;53.358;-6.238;2023-05-10T07:16:18;6.23;;;1.37;;
71048;SDS011;58704;53.358;-6.238;2023-05-10T07:18:43;6.83;;;1.30;;
71048;SDS011;58704;53.358;-6.238;2023-05-10T07:21:09;7.25;;;2.10;;
71048;SDS011;58704;53.358;-6.238;2023-05-10T07:23:34;4.10;;;1.23;;
71048;SDS011;58704;53.358;-6.238;2023-05-10T07:26:00;3.43;;;1.13;;
71048;SDS011;58704;53.358;-6.238;2023-05-10T07:28:25;4.30;;;1.10;;
71048;SDS011;58704;53.358;-6.238;2023-05-10T07:30:51;5.27;;;1.10;;
71048;SDS011;58704;53.358;-6.238;2023-05-10T07:33:16;6.43;;;1.57;;
71048;SDS011;58704;53.358;-6.238;2023-05-10T07:35:42;4.80;;;1.00;;
71048;SDS011;58704;53.358;-6.238;2023-05-10T07:38:07;3.50;;;1.40;;
71048;SDS011;58704;53.358;-6.238;2023-05-10T07:40:33;5.43;;;1.67;;
71048;SDS011;58704;53.358;-6.238;2023-05-10T07:42:59;4.60;;;1.30;;
71048;SDS011;58704;53.358;-6.238;2023-05-10T07:45:26;2.58;;;1.20;;
71048;SDS011;58704;53.358;-6.238;2023-05-10T07:47:52;4.53;;;1.03;;
71048;SDS011;58704;53.358;-6.238;2023-05-10T07:50:17;5.03;;;1.00;;
71048;SDS011;58704;53.358;-6.238;2023-05-10T07:52:43;3.40;;;1.27;;
71048;SDS011;58704;53.358;-6.238;2023-05-10T07:55:08;3.37;;;1.00;;
71048;SDS011;58704;53.358;-6.238;2023-05-10T07:57:34;3.50;;;1.23;;
71048;SDS011;58704;53.358;-6.238;2023-05-10T08:00:01;4.37;;;1.10;;
71048;SDS011;58704;53.358;-6.238;2023-05-10T08:02:27;4.60;;;0.90;;
71048;SDS011;58704;53.358;-6.238;2023-05-10T08:04:53;2.23;;;1.10;;
71048;SDS011;58704;53.358;-6.238;2023-05-10T08:07:18;3.13;;;1.20;;
71048;SDS011;58704;53.358;-6.238;2023-05-10T08:09:44;2.65;;;1.23;;
71048;SDS011;58704;53.358;-6.238;2023-05-10T08:12:09;3.90;;;1.00;;
71048;SDS011;58704;53.358;-6.238;2023-05-10T08:14:35;2.47;;;0.70;;
71048;SDS011;58704;53.358;-6.238;2023-05-10T08:17:03;3.90;;;1.60;;
71048;SDS011;58704;53.358;-6.238;2023-05-10T08:19:30;3.08;;;1.10;;
71048;SDS011;58704;53.358;-6.238;2023-05-10T08:21:55;4.00;;;1.20;;
71048;SDS011;58704;53.358;-6.238;2023-05-10T08:24:21;2.50;;;1.13;;
71048;SDS011;58704;53.358;-6.238;2023-05-10T08:26:47;6.13;;;1.00;;
71048;SDS011;58704;53.358;-6.238;2023-05-10T08:29:13;3.60;;;1.55;;
71048;SDS011;58704;53.358;-6.238;2023-05-10T08:31:39;1.33;;;1.10;;
71048;SDS011;58704;53.358;-6.238;2023-05-10T08:34:04;2.35;;;1.13;;
71048;SDS011;58704;53.358;-6.238;2023-05-10T08:36:30;3.73;;;1.20;;
71048;SDS011;58704;53.358;-6.238;2023-05-10T08:38:57;6.97;;;2.22;;
71048;SDS011;58704;53.358;-6.238;2023-05-10T08:41:23;5.18;;;1.35;;
71048;SDS011;58704;53.358;-6.238;2023-05-10T08:43:50;2.73;;;1.53;;
71048;SDS011;58704;53.358;-6.238;2023-05-10T08:46:17;7.20;;;1.10;;
71048;SDS011;58704;53.358;-6.238;2023-05-10T08:48:47;9.48;;;2.10;;
71048;SDS011;58704;53.358;-6.238;2023-05-10T08:51:22;8.68;;;1.50;;
71048;SDS011;58704;53.358;-6.238;2023-05-10T08:53:51;2.33;;;1.10;;
71048;SDS011;58704;53.358;-6.238;2023-05-10T08:56:17;3.50;;;1.30;;
71048;SDS011;58704;53.358;-6.238;2023-05-10T08:58:42;1.13;;;0.80;;
71048;SDS011;58704;53.358;-6.238;2023-05-10T09:01:08;1.90;;;1.13;;
71048;SDS011;58704;53.358;-6.238;2023-05-10T09:03:34;4.72;;;1.48;;
71048;SDS011;58704;53.358;-6.238;2023-05-10T09:06:00;4.65;;;1.30;;
71048;SDS011;58704;53.358;-6.238;2023-05-10T09:08:26;2.57;;;1.10;;
71048;SDS011;58704;53.358;-6.238;2023-05-10T09:10:52;4.20;;;1.00;;
71048;SDS011;58704;53.358;-6.238;2023-05-10T09:13:18;4.40;;;1.40;;
71048;SDS011;58704;53.358;-6.238;2023-05-10T09:15:44;5.88;;;1.23;;
71048;SDS011;58704;53.358;-6.238;2023-05-10T09:18:10;1.58;;;1.05;;
71048;SDS011;58704;53.358;-6.238;2023-05-10T09:20:36;3.17;;;1.20;;
71048;SDS011;58704;53.358;-6.238;2023-05-10T09:23:01;2.65;;;1.13;;
71048;SDS011;58704;53.358;-6.238;2023-05-10T09:25:26;5.63;;;1.20;;
71048;SDS011;58704;53.358;-6.238;2023-05-10T09:27:52;2.67;;;1.10;;
71048;SDS011;58704;53.358;-6.238;2023-05-10T09:30:39;3.05;;;1.05;;
71048;SDS011;58704;53.358;-6.238;2023-05-10T09:33:04;2.77;;;1.30;;
71048;SDS011;58704;53.358;-6.238;2023-05-10T09:35:30;2.53;;;1.00;;
71048;SDS011;58704;53.358;-6.238;2023-05-10T09:38:01;1.95;;;1.30;;
71048;SDS011;58704;53.358;-6.238;2023-05-10T09:40:28;1.13;;;0.80;;
71048;SDS011;58704;53.358;-6.238;2023-05-10T09:45:24;5.30;;;1.20;;
71048;SDS011;58704;53.358;-6.238;2023-05-10T09:47:51;2.60;;;1.05;;
71048;SDS011;58704;53.358;-6.238;2023-05-10T09:50:16;5.20;;;0.87;;
71048;SDS011;58704;53.358;-6.238;2023-05-10T09:52:52;3.72;;;1.23;;
71048;SDS011;58704;53.358;-6.238;2023-05-10T09:55:26;2.45;;;1.05;;
71048;SDS011;58704;53.358;-6.238;2023-05-10T09:58:14;3.40;;;1.15;;
71048;SDS011;58704;53.358;-6.238;2023-05-10T10:00:40;3.00;;;1.00;;
71048;SDS011;58704;53.358;-6.238;2023-05-10T10:03:11;3.97;;;1.00;;
71048;SDS011;58704;53.358;-6.238;2023-05-10T10:05:44;2.33;;;1.33;;
71048;SDS011;58704;53.358;-6.238;2023-05-10T10:08:11;2.88;;;1.13;;
71048;SDS011;58704;53.358;-6.238;2023-05-10T10:10:37;2.33;;;1.13;;
71048;SDS011;58704;53.358;-6.238;2023-05-10T10:13:05;2.33;;;1.00;;
71048;SDS011;58704;53.358;-6.238;2023-05-10T10:15:30;1.98;;;0.95;;
71048;SDS011;58704;53.358;-6.238;2023-05-10T10:17:57;1.48;;;1.23;;
71048;SDS011;58704;53.358;-6.238;2023-05-10T10:20:24;1.90;;;0.90;;
71048;SDS011;58704;53.358;-6.238;2023-05-10T10:22:50;1.10;;;0.90;;
71048;SDS011;58704;53.358;-6.238;2023-05-10T10:25:16;1.02;;;0.90;;
71048;SDS011;58704;53.358;-6.238;2023-05-10T10:35:43;2.08;;;1.10;;
71048;SDS011;58704;53.358;-6.238;2023-05-10T10:38:10;1.35;;;1.17;;
71048;SDS011;58704;53.358;-6.238;2023-05-10T10:40:37;2.60;;;1.35;;
71048;SDS011;58704;53.358;-6.238;2023-05-10T10:48:50;1.58;;;1.10;;
71048;SDS011;58704;53.358;-6.238;2023-05-10T10:51:36;1.87;;;1.03;;
71048;SDS011;58704;53.358;-6.238;2023-05-10T10:54:11;3.97;;;1.33;;
71048;SDS011;58704;53.358;-6.238;2023-05-10T10:56:37;1.90;;;0.88;;
71048;SDS011;58704;53.358;-6.238;2023-05-10T10:59:02;1.33;;;0.80;;
71048;SDS011;58704;53.358;-6.238;2023-05-10T11:01:32;1.77;;;1.10;;
71048;SDS011;58704;53.358;-6.238;2023-05-10T11:06:35;2.07;;;0.90;;
71048;SDS011;58704;53.358;-6.238;2023-05-10T11:09:07;2.40;;;1.30;;
71048;SDS011;58704;53.358;-6.238;2023-05-10T11:11:36;1.63;;;1.00;;
71048;SDS011;58704;53.358;-6.238;2023-05-10T11:14:13;3.03;;;1.20;;
71048;SDS011;58704;53.358;-6.238;2023-05-10T11:16:42;2.63;;;1.07;;
71048;SDS011;58704;53.358;-6.238;2023-05-10T11:19:12;1.48;;;1.38;;
71048;SDS011;58704;53.358;-6.238;2023-05-10T11:21:48;4.40;;;1.03;;
71048;SDS011;58704;53.358;-6.238;2023-05-10T11:24:16;0.88;;;0.88;;
71048;SDS011;58704;53.358;-6.238;2023-05-10T11:26:43;3.53;;;1.20;;
71048;SDS011;58704;53.358;-6.238;2023-05-10T11:29:09;3.92;;;1.02;;
71048;SDS011;58704;53.358;-6.238;2023-05-10T11:31:34;1.40;;;1.00;;
71048;SDS011;58704;53.358;-6.238;2023-05-10T11:34:01;1.08;;;0.90;;
71048;SDS011;58704;53.358;-6.238;2023-05-10T11:36:33;2.17;;;1.20;;
71048;SDS011;58704;53.358;-6.238;2023-05-10T11:39:01;1.52;;;1.13;;
71048;SDS011;58704;53.358;-6.238;2023-05-10T11:41:28;1.80;;;1.20;;
71048;SDS011;58704;53.358;-6.238;2023-05-10T11:43:55;2.25;;;1.20;;
71048;SDS011;58704;53.358;-6.238;2023-05-10T11:46:22;2.88;;;1.17;;
71048;SDS011;58704;53.358;-6.238;2023-05-10T11:48:52;2.30;;;1.10;;
71048;SDS011;58704;53.358;-6.238;2023-05-10T11:51:21;4.00;;;1.40;;
71048;SDS011;58704;53.358;-6.238;2023-05-10T11:53:47;2.70;;;1.23;;
71048;SDS011;58704;53.358;-6.238;2023-05-10T11:56:15;4.18;;;1.30;;
71048;SDS011;58704;53.358;-6.238;2023-05-10T11:58:40;1.95;;;1.38;;
71048;SDS011;58704;53.358;-6.238;2023-05-10T12:01:07;2.37;;;1.30;;
71048;SDS011;58704;53.358;-6.238;2023-05-10T12:03:34;3.40;;;1.35;;
71048;SDS011;58704;53.358;-6.238;2023-05-10T12:06:00;1.70;;;0.80;;
71048;SDS011;58704;53.358;-6.238;2023-05-10T12:08:27;2.65;;;1.15;;
71048;SDS011;58704;53.358;-6.238;2023-05-10T12:10:53;2.83;;;1.10;;
71048;SDS011;58704;53.358;-6.238;2023-05-10T12:13:28;1.90;;;1.17;;
71048;SDS011;58704;53.358;-6.238;2023-05-10T12:15:53;2.70;;;1.20;;
71048;SDS011;58704;53.358;-6.238;2023-05-10T12:18:22;2.60;;;1.20;;
71048;SDS011;58704;53.358;-6.238;2023-05-10T12:20:52;1.98;;;1.20;;
71048;SDS011;58704;53.358;-6.238;2023-05-10T12:23:21;4.07;;;1.40;;
71048;SDS011;58704;53.358;-6.238;2023-05-10T12:25:46;1.83;;;1.08;;
71048;SDS011;58704;53.358;-6.238;2023-05-10T12:28:11;1.60;;;1.23;;
71048;SDS011;58704;53.358;-6.238;2023-05-10T12:30:37;1.73;;;1.03;;
71048;SDS011;58704;53.358;-6.238;2023-05-10T12:33:07;1.95;;;1.10;;
71048;SDS011;58704;53.358;-6.238;2023-05-10T12:35:43;2.85;;;1.30;;
71048;SDS011;58704;53.358;-6.238;2023-05-10T12:40:54;2.07;;;1.30;;
71048;SDS011;58704;53.358;-6.238;2023-05-10T12:43:22;2.53;;;1.30;;
71048;SDS011;58704;53.358;-6.238;2023-05-10T12:45:47;1.55;;;1.08;;
71048;SDS011;58704;53.358;-6.238;2023-05-10T12:48:14;4.05;;;1.40;;
71048;SDS011;58704;53.358;-6.238;2023-05-10T12:50:40;3.17;;;1.37;;
71048;SDS011;58704;53.358;-6.238;2023-05-10T12:53:05;2.25;;;1.38;;
71048;SDS011;58704;53.358;-6.238;2023-05-10T12:55:30;6.47;;;1.30;;
71048;SDS011;58704;53.358;-6.238;2023-05-10T12:57:56;2.40;;;1.13;;
71048;SDS011;58704;53.358;-6.238;2023-05-10T13:00:21;1.30;;;1.20;;
71048;SDS011;58704;53.358;-6.238;2023-05-10T13:02:47;2.53;;;1.15;;
71048;SDS011;58704;53.358;-6.238;2023-05-10T13:05:12;1.10;;;1.00;;
71048;SDS011;58704;53.358;-6.238;2023-05-10T13:07:38;2.17;;;1.57;;
71048;SDS011;58704;53.358;-6.238;2023-05-10T13:10:04;2.45;;;1.38;;
71048;SDS011;58704;53.358;-6.238;2023-05-10T13:12:30;2.85;;;1.50;;
71048;SDS011;58704;53.358;-6.238;2023-05-10T13:14:56;1.53;;;1.37;;
71048;SDS011;58704;53.358;-6.238;2023-05-10T13:17:22;1.87;;;1.00;;
71048;SDS011;58704;53.358;-6.238;2023-05-10T13:19:47;1.13;;;1.00;;
71048;SDS011;58704;53.358;-6.238;2023-05-10T13:22:13;1.77;;;1.00;;
71048;SDS011;58704;53.358;-6.238;2023-05-10T13:24:38;2.03;;;1.30;;
71048;SDS011;58704;53.358;-6.238;2023-05-10T13:27:03;1.63;;;1.30;;
71048;SDS011;58704;53.358;-6.238;2023-05-10T13:29:29;2.60;;;1.10;;
71048;SDS011;58704;53.358;-6.238;2023-05-10T13:31:54;1.87;;;1.10;;
71048;SDS011;58704;53.358;-6.238;2023-05-10T13:34:20;1.63;;;1.17;;
71048;SDS011;58704;53.358;-6.238;2023-05-10T13:36:46;4.10;;;1.40;;
71048;SDS011;58704;53.358;-6.238;2023-05-10T13:39:12;3.53;;;1.20;;
71048;SDS011;58704;53.358;-6.238;2023-05-10T13:41:37;2.47;;;1.20;;
71048;SDS011;58704;53.358;-6.238;2023-05-10T13:44:03;1.67;;;1.20;;
71048;SDS011;58704;53.358;-6.238;2023-05-10T13:46:29;1.15;;;1.05;;
71048;SDS011;58704;53.358;-6.238;2023-05-10T13:48:55;4.40;;;1.63;;
71048;SDS011;58704;53.358;-6.238;2023-05-10T13:51:20;2.78;;;1.50;;
71048;SDS011;58704;53.358;-6.238;2023-05-10T13:53:45;2.93;;;1.27;;
71048;SDS011;58704;53.358;-6.238;2023-05-10T13:56:12;4.93;;;2.05;;
71048;SDS011;58704;53.358;-6.238;2023-05-10T13:58:38;2.80;;;1.60;;
71048;SDS011;58704;53.358;-6.238;2023-05-10T14:01:03;3.45;;;1.85;;
71048;SDS011;58704;53.358;-6.238;2023-05-10T14:03:29;1.70;;;1.47;;
71048;SDS011;58704;53.358;-6.238;2023-05-10T14:05:55;2.03;;;1.10;;
71048;SDS011;58704;53.358;-6.238;2023-05-10T14:08:21;2.53;;;1.27;;
71048;SDS011;58704;53.358;-6.238;2023-05-10T14:10:46;3.22;;;1.23;;
71048;SDS011;58704;53.358;-6.238;2023-05-10T14:13:13;2.30;;;1.40;;
71048;SDS011;58704;53.358;-6.238;2023-05-10T14:15:38;1.50;;;1.20;;
71048;SDS011;58704;53.358;-6.238;2023-05-10T14:18:04;1.40;;;1.10;;
71048;SDS011;58704;53.358;-6.238;2023-05-10T14:20:29;3.33;;;1.40;;
71048;SDS011;58704;53.358;-6.238;2023-05-10T14:22:55;3.57;;;1.33;;
71048;SDS011;58704;53.358;-6.238;2023-05-10T14:25:20;1.42;;;1.17;;
71048;SDS011;58704;53.358;-6.238;2023-05-10T14:27:46;2.13;;;1.20;;
71048;SDS011;58704;53.358;-6.238;2023-05-10T14:30:12;2.90;;;1.58;;
71048;SDS011;58704;53.358;-6.238;2023-05-10T14:32:37;1.52;;;1.13;;
71048;SDS011;58704;53.358;-6.238;2023-05-10T14:35:03;1.83;;;1.27;;
71048;SDS011;58704;53.358;-6.238;2023-05-10T14:37:28;2.83;;;1.50;;
71048;SDS011;58704;53.358;-6.238;2023-05-10T14:39:54;2.17;;;1.40;;
71048;SDS011;58704;53.358;-6.238;2023-05-10T14:42:19;3.10;;;1.42;;
71048;SDS011;58704;53.358;-6.238;2023-05-10T14:44:44;4.20;;;1.27;;
71048;SDS011;58704;53.358;-6.238;2023-05-10T14:47:10;3.13;;;1.53;;
71048;SDS011;58704;53.358;-6.238;2023-05-10T14:49:35;2.30;;;1.33;;
71048;SDS011;58704;53.358;-6.238;2023-05-10T14:52:01;3.45;;;1.60;;
71048;SDS011;58704;53.358;-6.238;2023-05-10T14:54:26;3.80;;;1.50;;
71048;SDS011;58704;53.358;-6.238;2023-05-10T14:56:52;4.38;;;1.63;;
71048;SDS011;58704;53.358;-6.238;2023-05-10T14:59:17;1.47;;;1.20;;
71048;SDS011;58704;53.358;-6.238;2023-05-10T15:01:43;2.27;;;1.27;;
71048;SDS011;58704;53.358;-6.238;2023-05-10T15:04:09;2.70;;;1.70;;
71048;SDS011;58704;53.358;-6.238;2023-05-10T15:06:34;3.30;;;1.60;;
71048;SDS011;58704;53.358;-6.238;2023-05-10T15:09:00;5.90;;;1.38;;
71048;SDS011;58704;53.358;-6.238;2023-05-10T15:11:29;2.67;;;1.70;;